Time;durP1;ratioP1;P1;durP2;ratioP2;P2;SDS_P1;SDS_P2;PMS_P1;PMS_P2;Temp;Humidity;BMP_temperature;BMP_pressure;BME280_temperature;BME280_humidity;BME280_pressure;Samples;Min_cycle;Max_cycle;Signal;HPM_P1;HPM_P2
2022/12/31 00:01:54;;;;;;;5.15;2.42;;;7.80;99.90;;;;;;5074397;28;20828;-62
2022/12/31 00:04:21;;;;;;;4.50;2.55;;;7.70;99.90;;;;;;5077870;28;20047;-62
2022/12/31 00:06:47;;;;;;;4.13;2.20;;;7.70;99.90;;;;;;5077591;28;20099;-62
2022/12/31 00:09:14;;;;;;;5.05;2.30;;;7.70;99.90;;;;;;5071627;28;20047;-61
2022/12/31 00:11:41;;;;;;;5.65;2.58;;;7.70;99.90;;;;;;5076954;28;20443;-62
2022/12/31 00:14:08;;;;;;;4.57;2.53;;;7.70;99.90;;;;;;5090906;28;20036;-61
2022/12/31 00:16:37;;;;;;;7.78;3.08;;;7.60;99.90;;;;;;5090647;28;20089;-61
2022/12/31 00:19:06;;;;;;;6.53;3.15;;;7.60;99.90;;;;;;5090234;28;20637;-62
2022/12/31 00:21:34;;;;;;;7.65;3.03;;;7.60;99.90;;;;;;5090788;28;20044;-61
2022/12/31 00:24:01;;;;;;;6.00;2.47;;;7.60;99.90;;;;;;5090816;28;20093;-62
2022/12/31 00:26:31;;;;;;;4.07;2.35;;;7.60;99.90;;;;;;5075932;28;20094;-62
2022/12/31 00:28:59;;;;;;;6.05;2.28;;;7.50;99.90;;;;;;5080001;28;20040;-63
2022/12/31 00:31:35;;;;;;;6.97;2.60;;;7.50;99.90;;;;;;5079155;28;20090;-60
2022/12/31 00:34:03;;;;;;;5.60;2.15;;;7.50;99.90;;;;;;5074200;28;20493;-61
2022/12/31 00:36:33;;;;;;;7.57;2.70;;;7.50;99.90;;;;;;5072869;28;20040;-62
2022/12/31 00:39:01;;;;;;;9.15;2.53;;;7.70;99.90;;;;;;5071537;28;20505;-62
2022/12/31 00:41:28;;;;;;;2.85;1.67;;;7.90;99.90;;;;;;5075307;28;20039;-60
2022/12/31 00:43:55;;;;;;;6.40;1.20;;;7.90;99.90;;;;;;5079051;28;20114;-60
2022/12/31 00:46:23;;;;;;;1.52;1.00;;;8.40;99.90;;;;;;5071278;28;20105;-59
2022/12/31 00:48:51;;;;;;;3.35;1.33;;;8.80;99.90;;;;;;5072836;28;20124;-61
2022/12/31 00:51:19;;;;;;;;;;;9.00;99.90;;;;;;5074121;28;20037;-60
2022/12/31 00:53:46;;;;;;;2.17;0.90;;;9.10;99.90;;;;;;5077059;28;20381;-59
2022/12/31 00:56:15;;;;;;;1.58;0.80;;;9.30;99.90;;;;;;5071315;28;20053;-62
2022/12/31 00:58:43;;;;;;;1.65;1.00;;;9.40;99.90;;;;;;5078377;28;20067;-62
2022/12/31 01:01:22;;;;;;;4.55;1.13;;;9.50;99.90;;;;;;5070740;28;20041;-62
2022/12/31 01:03:51;;;;;;;2.15;0.82;;;9.50;99.90;;;;;;5075330;28;20053;-61
2022/12/31 01:06:18;;;;;;;2.40;0.82;;;9.60;99.90;;;;;;5078102;28;20094;-61
2022/12/31 01:08:48;;;;;;;1.50;0.90;;;9.70;99.90;;;;;;5073387;28;20072;-61
2022/12/31 01:11:19;;;;;;;1.83;0.90;;;9.80;99.90;;;;;;5078612;28;20044;-61
2022/12/31 01:13:56;;;;;;;5.47;1.17;;;9.80;99.90;;;;;;5070647;28;20040;-61
2022/12/31 01:16:46;;;;;;;2.25;1.52;;;9.60;99.90;;;;;;5080513;28;20048;-61
2022/12/31 01:19:17;;;;;;;3.13;1.38;;;9.50;99.90;;;;;;5075622;28;20048;-61
2022/12/31 01:21:45;;;;;;;2.03;1.10;;;9.40;99.90;;;;;;5070703;28;20052;-61
2022/12/31 01:24:12;;;;;;;1.77;1.00;;;9.30;99.90;;;;;;5072014;28;20037;-62
2022/12/31 01:26:40;;;;;;;5.57;1.77;;;9.10;99.90;;;;;;5076264;28;20041;-61
2022/12/31 01:29:07;;;;;;;;;;;8.90;99.90;;;;;;5070780;28;20495;-61
2022/12/31 01:31:35;;;;;;;1.60;1.08;;;8.80;99.90;;;;;;5073296;28;19966;-61
2022/12/31 01:34:03;;;;;;;1.25;0.90;;;8.90;99.90;;;;;;5072608;28;20370;-61
2022/12/31 01:36:31;;;;;;;2.10;1.17;;;8.80;99.90;;;;;;5077344;28;20040;-61
2022/12/31 01:39:00;;;;;;;1.55;1.20;;;8.90;99.90;;;;;;5070910;28;20090;-61
2022/12/31 01:41:30;;;;;;;1.15;1.00;;;8.90;99.90;;;;;;5081334;28;20101;-61
2022/12/31 01:44:00;;;;;;;2.92;1.38;;;8.80;99.90;;;;;;5072194;28;20389;-61
2022/12/31 01:46:52;;;;;;;1.88;1.17;;;8.80;99.90;;;;;;5074539;28;20044;-61
2022/12/31 01:49:41;;;;;;;2.47;1.10;;;8.80;99.90;;;;;;5071596;28;20037;-61
2022/12/31 01:52:11;;;;;;;1.85;1.10;;;8.80;99.90;;;;;;5076334;28;20102;-61
2022/12/31 01:54:46;;;;;;;1.75;1.00;;;8.90;99.90;;;;;;5070675;28;20119;-61
2022/12/31 01:57:14;;;;;;;1.25;0.90;;;8.90;99.90;;;;;;5072483;28;20714;-61
2022/12/31 01:59:43;;;;;;;1.40;0.80;;;9.00;99.90;;;;;;5070982;28;20052;-61
2022/12/31 02:02:12;;;;;;;6.82;1.40;;;8.90;99.90;;;;;;5078943;28;20094;-61
2022/12/31 02:04:39;;;;;;;1.67;1.02;;;8.90;99.90;;;;;;5078958;28;20397;-61
2022/12/31 02:07:08;;;;;;;1.52;1.00;;;8.80;99.90;;;;;;5070397;28;20037;-61
2022/12/31 02:09:38;;;;;;;2.08;1.00;;;8.90;99.90;;;;;;5073246;28;20036;-61
2022/12/31 02:12:06;;;;;;;3.67;0.93;;;9.00;99.90;;;;;;5081805;28;20044;-61
2022/12/31 02:14:38;;;;;;;2.45;1.27;;;9.00;99.90;;;;;;5070427;28;20562;-60
2022/12/31 02:17:36;;;;;;;1.85;1.10;;;9.00;99.90;;;;;;5070458;28;20040;-61
2022/12/31 02:20:30;;;;;;;1.42;1.10;;;9.00;99.90;;;;;;5073523;28;20122;-61
2022/12/31 02:23:20;;;;;;;2.33;1.10;;;9.00;99.90;;;;;;5074758;28;20090;-61
2022/12/31 02:26:25;;;;;;;4.00;1.05;;;9.00;99.90;;;;;;5070308;28;20539;-62
2022/12/31 02:29:13;;;;;;;2.00;1.20;;;8.90;99.90;;;;;;5072262;28;20044;-61
2022/12/31 02:32:10;;;;;;;1.65;0.90;;;8.90;99.90;;;;;;5069988;28;20041;-61
2022/12/31 02:34:49;;;;;;;2.20;1.15;;;8.80;99.90;;;;;;5077533;28;20102;-61
2022/12/31 02:37:19;;;;;;;2.67;1.20;;;8.70;99.90;;;;;;5075678;28;20170;-60
2022/12/31 02:39:46;;;;;;;2.90;1.33;;;8.60;99.90;;;;;;5070341;28;20094;-61
2022/12/31 02:42:13;;;;;;;8.77;1.48;;;8.50;99.90;;;;;;5071739;28;20123;-61
2022/12/31 02:44:41;;;;;;;4.05;1.17;;;8.40;99.90;;;;;;5080362;28;20040;-61
2022/12/31 02:47:08;;;;;;;3.45;1.20;;;8.30;99.90;;;;;;5077337;28;20063;-61
2022/12/31 02:50:09;;;;;;;2.50;1.02;;;8.30;99.90;;;;;;5093239;28;20561;-61
2022/12/31 02:53:06;;;;;;;2.40;1.02;;;8.20;99.90;;;;;;5086008;28;20099;-61
2022/12/31 02:55:42;;;;;;;4.28;1.13;;;8.10;99.90;;;;;;5089284;28;20438;-61
2022/12/31 03:04:31;;;;;;;1.83;0.85;;;8.10;99.90;;;;;;5075866;28;20074;-61
2022/12/31 03:07:07;;;;;;;2.25;1.20;;;8.10;99.90;;;;;;5073242;28;20048;-61
2022/12/31 03:09:35;;;;;;;1.33;0.90;;;8.10;99.90;;;;;;5055166;28;20497;-61
2022/12/31 03:14:51;;;;;;;1.63;0.85;;;8.10;99.90;;;;;;5085345;28;20040;-61
2022/12/31 03:17:17;;;;;;;2.65;1.38;;;8.20;99.90;;;;;;5084139;28;20036;-61
2022/12/31 03:22:31;;;;;;;1.63;0.95;;;8.10;99.90;;;;;;5072837;28;20044;-61
2022/12/31 03:27:51;;;;;;;3.53;1.10;;;8.10;99.90;;;;;;5088367;28;20119;-61
2022/12/31 03:30:20;;;;;;;2.15;0.93;;;8.10;99.90;;;;;;5086501;28;20496;-61
2022/12/31 03:32:48;;;;;;;1.58;0.82;;;8.10;99.90;;;;;;5093040;28;20078;-61
2022/12/31 03:35:18;;;;;;;1.33;0.90;;;8.10;99.90;;;;;;5091738;28;20044;-61
2022/12/31 03:37:45;;;;;;;1.83;1.00;;;8.10;99.90;;;;;;5076425;28;20068;-61
2022/12/31 03:40:12;;;;;;;;;;;8.10;99.90;;;;;;5055467;28;20044;-61
2022/12/31 03:42:39;;;;;;;1.83;0.95;;;8.10;99.90;;;;;;5072676;28;19920;-61
2022/12/31 03:45:07;;;;;;;1.98;1.00;;;8.10;99.90;;;;;;5081164;28;20044;-61
2022/12/31 03:47:33;;;;;;;;;;;8.10;99.90;;;;;;5084141;28;20078;-61
2022/12/31 03:50:00;;;;;;;3.25;1.10;;;8.10;99.90;;;;;;5115700;22;19984;-65
2022/12/31 03:52:27;;;;;;;2.38;0.90;;;8.10;99.90;;;;;;5122176;27;20067;-65
2022/12/31 03:54:54;;;;;;;3.03;1.15;;;8.10;99.90;;;;;;5133696;27;20130;-65
2022/12/31 03:57:22;;;;;;;1.25;0.70;;;8.20;99.90;;;;;;5132902;27;20043;-65
2022/12/31 03:59:48;;;;;;;2.35;1.20;;;8.30;99.90;;;;;;5132374;27;20051;-65
2022/12/31 04:02:15;;;;;;;1.67;0.98;;;8.60;99.90;;;;;;5128577;27;20084;-65
2022/12/31 04:04:42;;;;;;;2.60;0.82;;;8.80;99.90;;;;;;5128670;27;20444;-65
2022/12/31 04:07:09;;;;;;;8.98;1.27;;;9.00;99.90;;;;;;5131351;27;20047;-65
2022/12/31 04:09:36;;;;;;;1.10;0.70;;;9.10;99.90;;;;;;5128849;27;20099;-65
2022/12/31 04:12:02;;;;;;;1.98;0.80;;;9.30;99.90;;;;;;5132977;27;20042;-65
2022/12/31 04:14:29;;;;;;;2.05;0.80;;;9.40;99.90;;;;;;5133661;27;20074;-65
2022/12/31 04:16:56;;;;;;;1.55;0.80;;;9.40;99.90;;;;;;5130018;27;20528;-65
2022/12/31 04:19:23;;;;;;;1.27;0.80;;;9.50;99.90;;;;;;5124784;27;20043;-65
2022/12/31 04:21:50;;;;;;;1.80;1.08;;;9.50;99.90;;;;;;5133201;27;20126;-65
2022/12/31 04:24:16;;;;;;;1.42;0.95;;;9.50;99.90;;;;;;5133386;27;20039;-65
2022/12/31 04:26:43;;;;;;;4.95;1.08;;;9.40;99.90;;;;;;5132771;27;20111;-65
2022/12/31 04:29:10;;;;;;;2.58;1.15;;;9.40;99.90;;;;;;5125048;27;20468;-65
2022/12/31 04:31:37;;;;;;;2.08;1.05;;;9.30;99.90;;;;;;5132775;27;20096;-65
2022/12/31 04:34:04;;;;;;;1.90;1.10;;;9.20;99.90;;;;;;5133222;27;20043;-65
2022/12/31 04:36:31;;;;;;;1.23;0.85;;;9.10;99.90;;;;;;5124980;27;20113;-65
2022/12/31 04:38:58;;;;;;;2.28;0.95;;;9.20;99.90;;;;;;5124478;27;20046;-65
2022/12/31 04:41:25;;;;;;;3.80;1.10;;;9.10;99.90;;;;;;5132050;27;20526;-65
2022/12/31 04:43:54;;;;;;;1.02;0.70;;;9.20;99.90;;;;;;5125615;27;20520;-65
2022/12/31 04:46:24;;;;;;;0.93;0.60;;;9.20;99.90;;;;;;5127835;27;20082;-65
2022/12/31 04:48:51;;;;;;;1.33;0.73;;;9.20;99.90;;;;;;5112339;28;20051;-65
2022/12/31 04:51:19;;;;;;;1.02;0.82;;;9.40;99.90;;;;;;5112358;27;20495;-65
2022/12/31 04:53:46;;;;;;;1.30;0.75;;;9.50;99.90;;;;;;5119539;27;20071;-65
2022/12/31 04:56:13;;;;;;;1.02;0.60;;;9.50;99.90;;;;;;5127792;27;20032;-65
2022/12/31 04:58:41;;;;;;;1.35;0.80;;;9.40;99.90;;;;;;5112571;28;20039;-65
2022/12/31 05:01:08;;;;;;;;;;;9.40;99.90;;;;;;5112640;28;20568;-65
2022/12/31 05:03:35;;;;;;;1.40;0.82;;;9.40;99.90;;;;;;5111473;27;19966;-65
2022/12/31 05:06:05;;;;;;;0.82;0.77;;;9.20;99.90;;;;;;5112017;28;20104;-65
2022/12/31 05:08:33;;;;;;;5.35;0.90;;;9.20;99.90;;;;;;5111471;28;20873;-65
2022/12/31 05:10:59;;;;;;;2.67;0.70;;;9.20;99.90;;;;;;5121762;27;20035;-66
2022/12/31 05:13:27;;;;;;;2.63;0.70;;;9.10;99.90;;;;;;5123703;27;20100;-65
2022/12/31 05:16:00;;;;;;;2.00;1.02;;;9.00;99.90;;;;;;5131867;27;20487;-65
2022/12/31 05:18:27;;;;;;;1.35;0.90;;;9.00;99.90;;;;;;5131702;27;20499;-65
2022/12/31 05:20:54;;;;;;;3.65;1.38;;;9.00;99.90;;;;;;5111828;28;20488;-65
2022/12/31 05:23:21;;;;;;;3.22;1.00;;;8.90;99.90;;;;;;5111350;28;20674;-65
2022/12/31 05:25:48;;;;;;;1.55;0.80;;;8.90;99.90;;;;;;5112099;28;20047;-65
2022/12/31 05:28:16;;;;;;;3.10;1.27;;;8.90;99.90;;;;;;5120451;27;20122;-65
2022/12/31 05:30:43;;;;;;;2.20;1.13;;;8.80;99.90;;;;;;5128656;27;20098;-65
2022/12/31 05:33:10;;;;;;;1.33;0.95;;;8.80;99.90;;;;;;5118521;27;20211;-66
2022/12/31 05:35:37;;;;;;;3.75;1.60;;;8.70;99.90;;;;;;5126007;27;20125;-65
2022/12/31 05:38:04;;;;;;;2.15;1.05;;;8.60;99.90;;;;;;5113910;27;20093;-65
2022/12/31 05:40:30;;;;;;;2.35;1.85;;;8.60;99.90;;;;;;5115075;27;20080;-65
2022/12/31 05:42:57;;;;;;;3.00;1.88;;;8.50;99.90;;;;;;5110146;28;20071;-65
2022/12/31 05:45:24;;;;;;;5.28;1.20;;;8.30;99.90;;;;;;5112484;28;20082;-65
2022/12/31 05:47:56;;;;;;;1.50;1.17;;;8.30;99.90;;;;;;5111438;28;20039;-65
2022/12/31 05:50:23;;;;;;;2.70;1.35;;;8.10;99.90;;;;;;5110742;28;20120;-65
2022/12/31 05:52:55;;;;;;;2.83;1.70;;;8.10;99.90;;;;;;5122645;28;20109;-65
2022/12/31 05:55:22;;;;;;;2.70;1.95;;;7.90;99.90;;;;;;5111471;28;20454;-65
2022/12/31 05:57:48;;;;;;;3.63;1.70;;;7.80;99.90;;;;;;5110637;28;20044;-65
2022/12/31 06:00:15;;;;;;;3.03;1.48;;;7.80;99.90;;;;;;5110494;28;20117;-65
2022/12/31 06:02:44;;;;;;;2.00;1.00;;;7.70;99.90;;;;;;5121453;28;20050;-65
2022/12/31 06:05:11;;;;;;;2.75;1.25;;;7.60;99.90;;;;;;5111876;27;20028;-65
2022/12/31 06:07:37;;;;;;;4.15;1.20;;;7.50;99.90;;;;;;5110401;28;20075;-65
2022/12/31 06:10:05;;;;;;;2.83;1.35;;;7.50;99.90;;;;;;5110106;28;20557;-65
2022/12/31 06:12:32;;;;;;;;;;;7.40;99.90;;;;;;5112240;28;20043;-65
2022/12/31 06:14:58;;;;;;;1.65;1.30;;;7.30;99.90;;;;;;5123814;27;19984;-65
2022/12/31 06:17:25;;;;;;;3.20;1.20;;;7.30;99.90;;;;;;5131281;27;20071;-65
2022/12/31 06:19:52;;;;;;;9.68;2.70;;;7.20;99.90;;;;;;5128766;27;20068;-65
2022/12/31 06:22:18;;;;;;;4.82;2.50;;;7.20;99.90;;;;;;5130740;27;20044;-65
2022/12/31 06:24:45;;;;;;;5.07;2.67;;;7.20;99.90;;;;;;5115280;28;20109;-65
2022/12/31 06:27:12;;;;;;;5.40;3.22;;;7.20;99.90;;;;;;5115472;28;20100;-65
2022/12/31 06:29:39;;;;;;;6.32;3.22;;;7.10;99.90;;;;;;5122676;27;20069;-65
2022/12/31 06:32:06;;;;;;;5.65;2.60;;;7.10;99.90;;;;;;5114620;28;20446;-65
2022/12/31 06:34:32;;;;;;;6.45;1.83;;;7.00;99.90;;;;;;5114996;28;20093;-65
2022/12/31 06:36:59;;;;;;;4.00;1.70;;;7.00;99.90;;;;;;5122218;27;20422;-66
2022/12/31 06:39:26;;;;;;;7.20;3.13;;;7.00;99.90;;;;;;5114548;28;20058;-65
2022/12/31 06:41:53;;;;;;;5.18;3.45;;;7.10;99.90;;;;;;5114370;28;20088;-65
2022/12/31 06:44:21;;;;;;;3.85;1.90;;;7.10;99.90;;;;;;5114776;28;20059;-65
2022/12/31 06:46:49;;;;;;;5.15;2.60;;;7.00;99.90;;;;;;5132309;27;20529;-65
2022/12/31 06:49:16;;;;;;;5.35;1.88;;;6.80;99.90;;;;;;5121953;27;20402;-65
2022/12/31 06:51:44;;;;;;;6.60;3.05;;;6.80;99.90;;;;;;5114469;28;20108;-65
2022/12/31 06:54:12;;;;;;;4.03;2.15;;;6.60;99.90;;;;;;5114653;28;20052;-65
2022/12/31 06:56:40;;;;;;;4.38;2.10;;;6.60;99.90;;;;;;5114917;28;20068;-65
2022/12/31 06:59:19;;;;;;;5.10;2.50;;;6.60;99.90;;;;;;5126739;27;20073;-64
2022/12/31 07:02:21;;;;;;;5.15;2.05;;;6.60;99.90;;;;;;5118015;27;20044;-65
2022/12/31 07:05:06;;;;;;;3.83;1.58;;;6.60;99.90;;;;;;5117423;27;20059;-65
2022/12/31 07:07:45;;;;;;;2.75;1.55;;;6.50;99.90;;;;;;5123857;27;20126;-65
2022/12/31 07:10:32;;;;;;;4.22;2.13;;;6.50;99.90;;;;;;5129260;27;20043;-65
2022/12/31 07:13:30;;;;;;;3.38;1.50;;;6.40;99.90;;;;;;5121893;27;20105;-65
2022/12/31 07:16:35;;;;;;;1.42;1.10;;;6.30;99.90;;;;;;5117743;27;20507;-65
2022/12/31 07:19:28;;;;;;;4.45;1.80;;;6.30;99.90;;;;;;5124138;27;20112;-65
2022/12/31 07:21:57;;;;;;;4.75;1.50;;;6.30;99.90;;;;;;5116086;27;20092;-65
2022/12/31 07:24:24;;;;;;;2.70;1.50;;;6.30;99.90;;;;;;5113862;28;20438;-65
2022/12/31 07:27:15;;;;;;;2.50;1.85;;;6.40;99.90;;;;;;5113595;27;20054;-65
2022/12/31 07:30:08;;;;;;;4.43;2.00;;;6.50;99.90;;;;;;5119317;27;20084;-65
2022/12/31 07:32:58;;;;;;;3.97;2.40;;;6.50;99.90;;;;;;5113503;28;20047;-65
2022/12/31 07:36:00;;;;;;;5.40;2.33;;;6.70;99.90;;;;;;5125213;27;20045;-65
2022/12/31 07:38:55;;;;;;;2.92;1.77;;;6.90;99.90;;;;;;5119260;27;20093;-65
2022/12/31 07:42:00;;;;;;;4.70;2.15;;;7.10;99.90;;;;;;5116841;27;20043;-65
2022/12/31 07:44:56;;;;;;;4.90;2.03;;;7.20;99.90;;;;;;5091909;28;20116;-65
2022/12/31 07:47:25;;;;;;;2.58;1.90;;;7.20;99.90;;;;;;5112718;28;20074;-65
2022/12/31 07:49:53;;;;;;;3.40;1.70;;;7.50;99.90;;;;;;5114946;27;20043;-65
2022/12/31 07:52:20;;;;;;;2.70;1.17;;;7.60;99.90;;;;;;5128849;27;20044;-65
2022/12/31 07:54:47;;;;;;;1.77;0.95;;;7.70;99.90;;;;;;5113661;28;20503;-65
2022/12/31 07:57:16;;;;;;;3.35;1.90;;;7.90;99.90;;;;;;5113382;28;20044;-65
2022/12/31 07:59:55;;;;;;;8.43;2.20;;;8.20;99.90;;;;;;5120165;27;20088;-65
2022/12/31 08:02:43;;;;;;;5.18;2.33;;;8.10;99.90;;;;;;5118915;27;20048;-65
2022/12/31 08:05:32;;;;;;;6.30;2.47;;;7.90;99.90;;;;;;5125248;27;20035;-65
2022/12/31 08:08:14;;;;;;;;;;;7.80;99.90;;;;;;5133374;27;20039;-65
2022/12/31 08:10:55;;;;;;;3.13;1.80;;;7.80;99.90;;;;;;5133678;27;20325;-65
2022/12/31 08:13:22;;;;;;;7.13;1.88;;;7.70;99.90;;;;;;5130412;27;20447;-65
2022/12/31 08:15:49;;;;;;;3.45;2.38;;;7.70;99.90;;;;;;5118370;27;20553;-65
2022/12/31 08:18:16;;;;;;;5.10;2.15;;;7.80;99.90;;;;;;5112821;28;20044;-65
2022/12/31 08:20:54;;;;;;;;;;;7.90;99.90;;;;;;5114370;27;20048;-65
2022/12/31 08:23:32;;;;;;;3.10;1.85;;;8.00;99.90;;;;;;5118085;27;19965;-65
2022/12/31 08:26:14;;;;;;;3.35;2.08;;;8.10;99.90;;;;;;5112284;28;20104;-65
2022/12/31 08:29:20;;;;;;;10.52;4.93;;;8.20;99.90;;;;;;5112846;28;20047;-65
2022/12/31 08:32:11;;;;;;;8.52;4.20;;;8.30;99.90;;;;;;5122686;27;20052;-65
2022/12/31 08:35:05;;;;;;;8.55;3.83;;;8.30;99.90;;;;;;5112756;28;20039;-63
2022/12/31 08:37:42;;;;;;;4.35;2.20;;;8.30;99.90;;;;;;5080303;27;20071;-65
2022/12/31 08:40:29;;;;;;;3.22;1.92;;;8.40;99.90;;;;;;5124186;27;20043;-65
2022/12/31 08:42:56;;;;;;;4.55;2.25;;;8.50;99.90;;;;;;5129260;27;20093;-65
2022/12/31 08:45:32;;;;;;;4.45;2.00;;;8.50;99.90;;;;;;5121093;27;20039;-65
2022/12/31 08:48:18;;;;;;;4.10;1.88;;;8.60;99.90;;;;;;5121014;27;20071;-63
2022/12/31 08:50:45;;;;;;;4.68;2.20;;;8.60;99.90;;;;;;5116061;27;20093;-65
2022/12/31 08:53:12;;;;;;;5.72;2.70;;;8.70;99.90;;;;;;5112203;28;20075;-63
2022/12/31 08:55:42;;;;;;;3.00;2.05;;;8.80;99.90;;;;;;5116905;27;20039;-65
2022/12/31 08:58:35;;;;;;;3.28;1.80;;;8.90;99.90;;;;;;5112349;27;20088;-65
2022/12/31 09:01:05;;;;;;;6.85;3.22;;;9.00;99.90;;;;;;5116240;27;20043;-63
2022/12/31 09:03:41;;;;;;;5.55;2.53;;;9.10;99.90;;;;;;5115015;27;20036;-65
2022/12/31 09:06:26;;;;;;;3.92;1.80;;;9.20;99.90;;;;;;5128548;27;20499;-63
2022/12/31 09:09:21;;;;;;;6.50;2.45;;;9.20;99.90;;;;;;5130962;27;20103;-64
2022/12/31 09:12:07;;;;;;;2.58;1.42;;;9.30;99.90;;;;;;5128754;27;20035;-65
2022/12/31 09:15:01;;;;;;;3.72;1.60;;;9.40;99.90;;;;;;5125324;27;20047;-65
2022/12/31 09:17:45;;;;;;;2.75;1.33;;;9.40;99.90;;;;;;5118060;27;20163;-64
2022/12/31 09:20:28;;;;;;;4.07;1.65;;;9.40;99.90;;;;;;5114688;27;20113;-64
2022/12/31 09:23:10;;;;;;;3.42;2.08;;;9.40;99.90;;;;;;5111546;28;20508;-65
2022/12/31 09:25:58;;;;;;;3.55;1.83;;;9.30;99.90;;;;;;5111875;28;20043;-64
2022/12/31 09:28:43;;;;;;;4.75;2.30;;;9.30;99.90;;;;;;5118150;27;20055;-64
2022/12/31 09:31:20;;;;;;;5.43;2.83;;;9.30;99.90;;;;;;5131211;27;20110;-64
2022/12/31 09:34:01;;;;;;;5.13;2.30;;;9.10;99.90;;;;;;5132468;27;20050;-64
2022/12/31 09:36:40;;;;;;;5.18;2.05;;;9.10;99.90;;;;;;5122556;27;20048;-65
2022/12/31 09:39:17;;;;;;;3.63;2.10;;;9.00;99.90;;;;;;5111094;28;20047;-65
2022/12/31 09:42:32;;;;;;;5.10;2.67;;;9.00;99.90;;;;;;5113148;27;20047;-65
2022/12/31 09:45:31;;;;;;;6.10;2.55;;;9.00;99.90;;;;;;5120442;27;20043;-65
2022/12/31 09:48:43;;;;;;;6.38;3.22;;;8.90;99.90;;;;;;5099450;28;20048;-64
2022/12/31 09:51:37;;;;;;;6.72;2.67;;;8.90;99.90;;;;;;5119682;27;20096;-64
2022/12/31 09:54:18;;;;;;;6.03;2.40;;;8.90;99.90;;;;;;5125135;28;20407;-64
2022/12/31 09:56:55;;;;;;;5.40;2.10;;;8.90;99.90;;;;;;5122088;28;20112;-64
2022/12/31 10:00:20;;;;;;;4.55;2.30;;;9.00;99.90;;;;;;5123039;28;20049;-64
2022/12/31 10:02:55;;;;;;;3.22;2.15;;;9.10;99.90;;;;;;5059664;28;20058;-65
2022/12/31 10:06:00;;;;;;;4.47;2.30;;;9.20;99.90;;;;;;5110329;28;20047;-65
2022/12/31 10:08:46;;;;;;;4.18;2.00;;;9.30;99.90;;;;;;5120315;28;20043;-65
2022/12/31 10:11:36;;;;;;;3.03;1.90;;;9.40;99.90;;;;;;5126006;28;20089;-65
2022/12/31 10:14:27;;;;;;;4.72;1.98;;;9.50;99.90;;;;;;5097563;27;20072;-65
2022/12/31 10:17:26;;;;;;;3.33;1.60;;;9.50;99.90;;;;;;5121154;28;20110;-64
2022/12/31 10:20:26;;;;;;;3.45;1.65;;;9.50;99.90;;;;;;5118479;28;20039;-64
2022/12/31 10:22:56;;;;;;;5.38;2.50;;;9.60;99.90;;;;;;5118726;28;20040;-64
2022/12/31 10:25:36;;;;;;;4.20;1.88;;;9.70;99.90;;;;;;5121567;28;20039;-64
2022/12/31 10:28:36;;;;;;;3.38;1.73;;;9.60;99.90;;;;;;5117508;28;20081;-65
2022/12/31 10:31:24;;;;;;;2.63;1.70;;;9.50;99.90;;;;;;5049195;28;20408;-65
2022/12/31 10:34:06;;;;;;;3.50;1.80;;;9.50;99.90;;;;;;5120611;28;20051;-65
2022/12/31 10:37:05;;;;;;;3.50;1.90;;;9.50;99.90;;;;;;5119461;28;20089;-64
2022/12/31 10:39:47;;;;;;;3.53;1.90;;;9.50;99.90;;;;;;5118461;28;20100;-65
2022/12/31 10:42:46;;;;;;;3.92;2.15;;;9.60;99.90;;;;;;5129364;28;20050;-65
2022/12/31 10:45:22;;;;;;;;;;;9.60;99.90;;;;;;5128446;28;20031;-64
2022/12/31 10:48:20;;;;;;;2.65;1.35;;;9.60;99.90;;;;;;5122748;27;19926;-64
2022/12/31 10:51:17;;;;;;;4.97;2.70;;;9.70;99.90;;;;;;5111031;28;20059;-64
2022/12/31 10:54:12;;;;;;;4.22;1.77;;;9.70;99.90;;;;;;5119286;28;20039;-64
2022/12/31 10:57:05;;;;;;;6.43;2.15;;;9.80;99.90;;;;;;5118071;28;20446;-64
2022/12/31 10:59:53;;;;;;;6.20;1.95;;;9.80;99.90;;;;;;5111048;28;20445;-64
2022/12/31 11:02:59;;;;;;;6.30;2.33;;;9.80;99.90;;;;;;5116051;27;20372;-64
2022/12/31 11:05:50;;;;;;;5.18;2.00;;;9.80;99.90;;;;;;5110981;28;20085;-64
2022/12/31 11:08:55;;;;;;;6.63;1.80;;;9.80;99.90;;;;;;5113678;28;20406;-64
2022/12/31 11:11:37;;;;;;;6.70;2.00;;;10.00;99.90;;;;;;5100558;28;20047;-64
2022/12/31 11:14:10;;;;;;;6.18;2.42;;;10.10;99.90;;;;;;5125454;27;20048;-64
2022/12/31 11:16:55;;;;;;;4.55;2.05;;;10.10;99.90;;;;;;5132642;27;20050;-65
2022/12/31 11:19:54;;;;;;;6.95;2.53;;;10.20;99.90;;;;;;5123561;27;20040;-64
2022/12/31 11:22:46;;;;;;;5.82;2.38;;;10.30;99.90;;;;;;5124453;27;20085;-64
2022/12/31 11:25:51;;;;;;;5.50;2.20;;;10.50;99.90;;;;;;5125904;27;20396;-65
2022/12/31 11:28:46;;;;;;;4.50;2.08;;;10.60;99.90;;;;;;5124376;27;20047;-64
2022/12/31 11:31:31;;;;;;;3.20;1.95;;;10.70;99.90;;;;;;5130479;27;20082;-64
2022/12/31 11:34:32;;;;;;;2.42;1.48;;;10.70;99.90;;;;;;5134007;27;20390;-64
2022/12/31 11:37:25;;;;;;;4.15;1.77;;;10.70;99.90;;;;;;5123006;27;20051;-64
2022/12/31 11:40:18;;;;;;;2.90;1.90;;;10.70;99.90;;;;;;5128451;27;20483;-64
2022/12/31 11:42:58;;;;;;;1.98;1.35;;;10.70;99.90;;;;;;5131340;27;20066;-64
2022/12/31 11:45:47;;;;;;;3.20;1.65;;;10.60;99.90;;;;;;5131248;27;20410;-65
2022/12/31 11:48:45;;;;;;;2.17;1.38;;;10.60;99.90;;;;;;5124852;27;20039;-65
2022/12/31 11:52:15;;;;;;;3.05;1.60;;;10.60;99.90;;;;;;5104097;27;20112;-64
2022/12/31 11:55:07;;;;;;;2.92;1.80;;;10.60;99.90;;;;;;5065712;28;20055;-64
2022/12/31 11:57:37;;;;;;;2.17;1.63;;;10.60;99.90;;;;;;5066299;28;20386;-65
2022/12/31 12:00:18;;;;;;;8.57;2.97;;;10.50;99.90;;;;;;5116136;27;20047;-62
2022/12/31 12:02:47;;;;;;;5.85;2.65;;;10.40;99.90;;;;;;5122820;27;20071;-63
2022/12/31 12:05:19;;;;;;;6.75;2.80;;;10.40;99.90;;;;;;5133518;22;20043;-61
2022/12/31 12:07:49;;;;;;;5.50;2.58;;;10.30;99.90;;;;;;5108970;28;20039;-61
2022/12/31 12:10:25;;;;;;;4.30;2.60;;;10.20;99.90;;;;;;5111697;28;20040;-62
2022/12/31 12:13:15;;;;;;;3.58;2.00;;;10.30;99.90;;;;;;5112257;28;20492;-61
2022/12/31 12:15:56;;;;;;;7.35;2.60;;;10.30;99.90;;;;;;5105105;28;20132;-61
2022/12/31 12:18:27;;;;;;;5.43;2.88;;;10.20;99.90;;;;;;5099895;28;20486;-61
2022/12/31 12:21:04;;;;;;;7.35;3.20;;;10.20;99.90;;;;;;5092969;28;20032;-60
2022/12/31 12:23:31;;;;;;;4.63;2.78;;;10.10;99.90;;;;;;5094703;28;20044;-60
2022/12/31 12:25:58;;;;;;;4.30;2.22;;;10.10;99.90;;;;;;5092521;28;20089;-61
2022/12/31 12:28:28;;;;;;;4.35;2.20;;;10.10;99.90;;;;;;5095583;28;20048;-61
2022/12/31 12:31:04;;;;;;;7.55;2.55;;;10.10;99.90;;;;;;5111019;28;20384;-60
2022/12/31 12:33:45;;;;;;;5.00;2.55;;;10.10;99.90;;;;;;5111616;28;20123;-61
2022/12/31 12:36:14;;;;;;;5.32;2.00;;;10.20;99.90;;;;;;5112665;28;20104;-61
2022/12/31 12:38:42;;;;;;;6.55;3.25;;;10.30;99.90;;;;;;5103974;28;20101;-61
2022/12/31 12:41:24;;;;;;;4.85;2.78;;;10.30;99.90;;;;;;5112446;28;20040;-61
2022/12/31 12:44:04;;;;;;;5.53;3.25;;;10.30;99.90;;;;;;5112371;28;20077;-60
2022/12/31 12:46:48;;;;;;;4.68;2.80;;;10.30;99.90;;;;;;5106079;28;20031;-61
2022/12/31 12:49:31;;;;;;;6.65;2.75;;;10.20;99.90;;;;;;5112515;28;20052;-61
2022/12/31 12:52:03;;;;;;;8.82;2.40;;;10.30;99.90;;;;;;5100772;28;20071;-61
2022/12/31 12:54:45;;;;;;;6.10;3.15;;;10.30;99.90;;;;;;5091665;28;20068;-61
2022/12/31 12:57:33;;;;;;;6.70;3.78;;;10.30;99.90;;;;;;5091196;28;20056;-61
2022/12/31 13:00:05;;;;;;;5.35;2.90;;;10.30;99.90;;;;;;5093981;28;20493;-61
2022/12/31 13:02:56;;;;;;;8.23;2.88;;;10.20;99.90;;;;;;5105553;28;20109;-61
2022/12/31 13:05:29;;;;;;;10.48;3.13;;;10.10;99.90;;;;;;5092136;28;20048;-60
2022/12/31 13:08:15;;;;;;;5.13;2.78;;;10.00;99.90;;;;;;5097700;28;20078;-61
2022/12/31 13:11:00;;;;;;;6.88;2.72;;;10.00;99.90;;;;;;5103870;28;20052;-61
2022/12/31 13:14:14;;;;;;;7.32;2.92;;;10.00;99.90;;;;;;5093422;28;20180;-61
2022/12/31 13:16:59;;;;;;;13.13;5.28;;;10.00;99.90;;;;;;5104996;28;20453;-61
2022/12/31 13:19:42;;;;;;;5.60;3.33;;;10.10;99.90;;;;;;5102107;28;20515;-61
2022/12/31 13:22:31;;;;;;;6.97;2.40;;;10.10;99.90;;;;;;5103746;28;20044;-62
2022/12/31 13:25:07;;;;;;;4.93;2.72;;;10.20;99.90;;;;;;5100043;28;20067;-61
2022/12/31 13:27:40;;;;;;;4.43;2.47;;;10.30;99.90;;;;;;5102232;28;20080;-62
2022/12/31 13:30:22;;;;;;;7.18;3.17;;;10.30;99.90;;;;;;5091133;28;20100;-61
2022/12/31 13:32:59;;;;;;;4.15;2.47;;;10.30;99.90;;;;;;5091312;28;20050;-61
2022/12/31 13:35:31;;;;;;;5.35;2.30;;;10.40;99.90;;;;;;5095434;28;20059;-61
2022/12/31 13:38:14;;;;;;;6.00;2.40;;;10.40;99.90;;;;;;5091328;28;20036;-61
2022/12/31 13:40:46;;;;;;;5.22;2.60;;;10.40;99.90;;;;;;5088566;28;20060;-61
2022/12/31 13:43:36;;;;;;;5.22;2.47;;;10.40;99.90;;;;;;5088947;28;20036;-62
2022/12/31 13:46:32;;;;;;;3.42;2.22;;;10.50;99.90;;;;;;5082397;28;20051;-60
2022/12/31 13:49:12;;;;;;;6.72;2.60;;;10.50;99.90;;;;;;5063315;28;20115;-61
2022/12/31 13:51:43;;;;;;;9.35;3.33;;;10.40;99.90;;;;;;5102672;28;20074;-61
2022/12/31 13:54:16;;;;;;;6.40;2.25;;;10.40;99.90;;;;;;5105208;28;20090;-61
2022/12/31 13:56:45;;;;;;;5.35;2.50;;;10.40;99.90;;;;;;5110810;28;20090;-61
2022/12/31 13:59:19;;;;;;;4.25;2.33;;;10.30;99.90;;;;;;5107781;28;20036;-61
2022/12/31 14:02:07;;;;;;;7.60;3.08;;;10.30;99.90;;;;;;5104885;28;20036;-62
2022/12/31 14:04:47;;;;;;;;;;;10.30;99.90;;;;;;5109396;28;20027;-61